sensor_id;sensor_type;location;lat;lon;timestamp;temperature;humidity
7143;DHT22;3613;48.902;9.204;2023-01-09T00:01:48;7.50;99.90
7143;DHT22;3613;48.902;9.204;2023-01-09T00:04:19;7.60;99.90
7143;DHT22;3613;48.902;9.204;2023-01-09T00:06:44;7.50;99.90
7143;DHT22;3613;48.902;9.204;2023-01-09T00:09:21;7.50;99.90
7143;DHT22;3613;48.902;9.204;2023-01-09T00:11:48;7.50;99.90
7143;DHT22;3613;48.902;9.204;2023-01-09T00:14:15;7.50;99.90
7143;DHT22;3613;48.902;9.204;2023-01-09T00:16:43;7.60;99.90
7143;DHT22;3613;48.902;9.204;2023-01-09T00:19:11;7.70;99.90
7143;DHT22;3613;48.902;9.204;2023-01-09T00:21:40;7.50;99.90
7143;DHT22;3613;48.902;9.204;2023-01-09T00:24:08;7.50;99.90
7143;DHT22;3613;48.902;9.204;2023-01-09T00:26:34;7.50;99.90
7143;DHT22;3613;48.902;9.204;2023-01-09T00:29:00;7.50;99.90
7143;DHT22;3613;48.902;9.204;2023-01-09T00:31:26;7.50;99.90
7143;DHT22;3613;48.902;9.204;2023-01-09T00:36:19;7.50;99.90
7143;DHT22;3613;48.902;9.204;2023-01-09T00:38:45;7.60;99.90
7143;DHT22;3613;48.902;9.204;2023-01-09T00:41:15;7.60;99.90
7143;DHT22;3613;48.902;9.204;2023-01-09T00:43:45;7.60;99.90
7143;DHT22;3613;48.902;9.204;2023-01-09T00:46:16;7.50;99.90
7143;DHT22;3613;48.902;9.204;2023-01-09T00:48:46;7.70;99.90
7143;DHT22;3613;48.902;9.204;2023-01-09T00:51:15;7.60;99.90
7143;DHT22;3613;48.902;9.204;2023-01-09T00:53:42;7.50;99.90
7143;DHT22;3613;48.902;9.204;2023-01-09T00:56:14;7.40;99.90
7143;DHT22;3613;48.902;9.204;2023-01-09T00:58:40;7.40;99.90
7143;DHT22;3613;48.902;9.204;2023-01-09T01:01:08;7.40;99.90
7143;DHT22;3613;48.902;9.204;2023-01-09T01:03:34;7.50;99.90
7143;DHT22;3613;48.902;9.204;2023-01-09T01:05:59;7.50;99.90
7143;DHT22;3613;48.902;9.204;2023-01-09T01:08:46;7.50;99.90
7143;DHT22;3613;48.902;9.204;2023-01-09T01:11:12;7.40;99.90
7143;DHT22;3613;48.902;9.204;2023-01-09T01:13:39;7.50;99.90
7143;DHT22;3613;48.902;9.204;2023-01-09T01:16:11;7.50;99.90
7143;DHT22;3613;48.902;9.204;2023-01-09T01:18:37;7.50;99.90
7143;DHT22;3613;48.902;9.204;2023-01-09T01:21:11;7.60;99.90
7143;DHT22;3613;48.902;9.204;2023-01-09T01:23:37;7.70;99.90
7143;DHT22;3613;48.902;9.204;2023-01-09T01:26:07;7.60;99.90
7143;DHT22;3613;48.902;9.204;2023-01-09T01:28:35;7.50;99.90
7143;DHT22;3613;48.902;9.204;2023-01-09T01:31:02;7.60;99.90
7143;DHT22;3613;48.902;9.204;2023-01-09T01:33:28;7.60;99.90
7143;DHT22;3613;48.902;9.204;2023-01-09T01:36:04;7.60;99.90
7143;DHT22;3613;48.902;9.204;2023-01-09T01:38:31;7.60;99.90
7143;DHT22;3613;48.902;9.204;2023-01-09T01:40:57;7.80;99.90
7143;DHT22;3613;48.902;9.204;2023-01-09T01:43:23;7.60;99.90
7143;DHT22;3613;48.902;9.204;2023-01-09T01:45:49;7.50;99.90
7143;DHT22;3613;48.902;9.204;2023-01-09T01:48:19;8.00;99.90
7143;DHT22;3613;48.902;9.204;2023-01-09T01:50:51;7.60;99.90
7143;DHT22;3613;48.902;9.204;2023-01-09T01:53:31;7.50;99.90
7143;DHT22;3613;48.902;9.204;2023-01-09T01:56:09;7.50;99.90
7143;DHT22;3613;48.902;9.204;2023-01-09T02:01:39;7.40;99.90
7143;DHT22;3613;48.902;9.204;2023-01-09T02:04:09;7.80;99.90
7143;DHT22;3613;48.902;9.204;2023-01-09T02:06:36;7.50;99.90
7143;DHT22;3613;48.902;9.204;2023-01-09T02:09:06;7.40;99.90
7143;DHT22;3613;48.902;9.204;2023-01-09T02:11:43;7.50;99.90
7143;DHT22;3613;48.902;9.204;2023-01-09T02:14:12;7.50;99.90
7143;DHT22;3613;48.902;9.204;2023-01-09T02:16:47;7.50;99.90
7143;DHT22;3613;48.902;9.204;2023-01-09T02:30:36;7.50;99.90
7143;DHT22;3613;48.902;9.204;2023-01-09T02:33:21;7.50;99.90
7143;DHT22;3613;48.902;9.204;2023-01-09T02:41:16;7.40;99.90
7143;DHT22;3613;48.902;9.204;2023-01-09T02:43:46;10.00;99.90
7143;DHT22;3613;48.902;9.204;2023-01-09T02:46:22;7.50;99.90
7143;DHT22;3613;48.902;9.204;2023-01-09T02:48:50;7.50;99.90
7143;DHT22;3613;48.902;9.204;2023-01-09T02:51:34;7.50;99.90
7143;DHT22;3613;48.902;9.204;2023-01-09T02:54:06;7.50;99.90
7143;DHT22;3613;48.902;9.204;2023-01-09T02:56:50;7.50;99.90
7143;DHT22;3613;48.902;9.204;2023-01-09T03:02:08;7.40;99.90
7143;DHT22;3613;48.902;9.204;2023-01-09T03:04:41;7.40;99.90
7143;DHT22;3613;48.902;9.204;2023-01-09T03:10:00;7.40;99.90
7143;DHT22;3613;48.902;9.204;2023-01-09T03:12:31;7.40;99.90
7143;DHT22;3613;48.902;9.204;2023-01-09T03:14:59;7.40;99.90
7143;DHT22;3613;48.902;9.204;2023-01-09T03:17:32;7.50;99.90
7143;DHT22;3613;48.902;9.204;2023-01-09T03:20:03;7.50;99.90
7143;DHT22;3613;48.902;9.204;2023-01-09T03:22:32;7.40;99.90
7143;DHT22;3613;48.902;9.204;2023-01-09T03:25:00;7.50;99.90
7143;DHT22;3613;48.902;9.204;2023-01-09T03:27:26;7.50;99.90
7143;DHT22;3613;48.902;9.204;2023-01-09T03:29:56;7.50;99.90
7143;DHT22;3613;48.902;9.204;2023-01-09T03:32:22;7.60;99.90
7143;DHT22;3613;48.902;9.204;2023-01-09T03:34:48;7.60;99.90
7143;DHT22;3613;48.902;9.204;2023-01-09T03:37:13;7.50;99.90
7143;DHT22;3613;48.902;9.204;2023-01-09T03:39:39;7.50;99.90
7143;DHT22;3613;48.902;9.204;2023-01-09T03:42:05;7.50;99.90
7143;DHT22;3613;48.902;9.204;2023-01-09T03:44:30;7.60;99.90
7143;DHT22;3613;48.902;9.204;2023-01-09T03:46:56;7.50;99.90
7143;DHT22;3613;48.902;9.204;2023-01-09T03:49:21;7.50;99.90
7143;DHT22;3613;48.902;9.204;2023-01-09T03:51:47;7.50;99.90
7143;DHT22;3613;48.902;9.204;2023-01-09T03:54:13;7.60;99.90
7143;DHT22;3613;48.902;9.204;2023-01-09T03:56:38;7.50;99.90
7143;DHT22;3613;48.902;9.204;2023-01-09T03:59:06;7.60;99.90
7143;DHT22;3613;48.902;9.204;2023-01-09T04:01:32;7.40;99.90
7143;DHT22;3613;48.902;9.204;2023-01-09T04:03:58;7.30;99.90
7143;DHT22;3613;48.902;9.204;2023-01-09T04:06:23;7.20;99.90
7143;DHT22;3613;48.902;9.204;2023-01-09T04:08:49;7.00;99.90
7143;DHT22;3613;48.902;9.204;2023-01-09T04:11:14;6.70;99.90
7143;DHT22;3613;48.902;9.204;2023-01-09T04:13:42;6.70;99.90
7143;DHT22;3613;48.902;9.204;2023-01-09T04:16:09;6.60;99.90
7143;DHT22;3613;48.902;9.204;2023-01-09T04:18:35;6.50;99.90
7143;DHT22;3613;48.902;9.204;2023-01-09T04:21:00;6.40;99.90
7143;DHT22;3613;48.902;9.204;2023-01-09T04:23:26;6.30;99.90
7143;DHT22;3613;48.902;9.204;2023-01-09T04:25:51;6.30;99.90
7143;DHT22;3613;48.902;9.204;2023-01-09T04:28:17;6.30;99.90
7143;DHT22;3613;48.902;9.204;2023-01-09T04:30:42;6.20;99.90
7143;DHT22;3613;48.902;9.204;2023-01-09T04:33:09;6.20;99.90
7143;DHT22;3613;48.902;9.204;2023-01-09T04:35:34;6.10;99.90
7143;DHT22;3613;48.902;9.204;2023-01-09T04:38:02;6.10;99.90
7143;DHT22;3613;48.902;9.204;2023-01-09T04:40:27;6.10;99.90
7143;DHT22;3613;48.902;9.204;2023-01-09T04:42:53;6.40;99.90
7143;DHT22;3613;48.902;9.204;2023-01-09T04:45:21;6.10;99.90
7143;DHT22;3613;48.902;9.204;2023-01-09T04:47:46;6.10;99.90
7143;DHT22;3613;48.902;9.204;2023-01-09T04:50:13;6.00;99.90
7143;DHT22;3613;48.902;9.204;2023-01-09T04:52:39;6.00;99.90
7143;DHT22;3613;48.902;9.204;2023-01-09T04:55:05;6.00;99.90
7143;DHT22;3613;48.902;9.204;2023-01-09T04:57:32;5.90;99.90
7143;DHT22;3613;48.902;9.204;2023-01-09T04:59:57;6.00;99.90
7143;DHT22;3613;48.902;9.204;2023-01-09T05:02:23;6.30;99.90
7143;DHT22;3613;48.902;9.204;2023-01-09T05:04:48;5.90;99.90
7143;DHT22;3613;48.902;9.204;2023-01-09T05:07:14;5.90;99.90
7143;DHT22;3613;48.902;9.204;2023-01-09T05:09:39;5.90;99.90
7143;DHT22;3613;48.902;9.204;2023-01-09T05:12:05;5.90;99.90
7143;DHT22;3613;48.902;9.204;2023-01-09T05:14:35;5.90;99.90
7143;DHT22;3613;48.902;9.204;2023-01-09T05:17:03;5.90;99.90
7143;DHT22;3613;48.902;9.204;2023-01-09T05:19:29;5.90;99.90
7143;DHT22;3613;48.902;9.204;2023-01-09T05:21:54;5.90;99.90
7143;DHT22;3613;48.902;9.204;2023-01-09T05:24:20;5.90;99.90
7143;DHT22;3613;48.902;9.204;2023-01-09T05:26:45;5.90;99.90
7143;DHT22;3613;48.902;9.204;2023-01-09T05:29:11;6.70;99.90
7143;DHT22;3613;48.902;9.204;2023-01-09T05:31:37;5.90;99.90
7143;DHT22;3613;48.902;9.204;2023-01-09T05:34:05;7.00;99.90
7143;DHT22;3613;48.902;9.204;2023-01-09T05:36:31;5.90;99.90
7143;DHT22;3613;48.902;9.204;2023-01-09T05:38:56;6.00;99.90
7143;DHT22;3613;48.902;9.204;2023-01-09T05:41:23;6.00;99.90
7143;DHT22;3613;48.902;9.204;2023-01-09T05:43:51;6.00;99.90
7143;DHT22;3613;48.902;9.204;2023-01-09T05:46:16;6.00;99.90
7143;DHT22;3613;48.902;9.204;2023-01-09T05:48:42;5.90;99.90
7143;DHT22;3613;48.902;9.204;2023-01-09T05:51:14;5.80;99.90
7143;DHT22;3613;48.902;9.204;2023-01-09T05:53:39;5.70;99.90
7143;DHT22;3613;48.902;9.204;2023-01-09T05:56:07;5.60;99.90
7143;DHT22;3613;48.902;9.204;2023-01-09T05:58:36;5.50;99.90
7143;DHT22;3613;48.902;9.204;2023-01-09T06:01:01;5.50;99.90
7143;DHT22;3613;48.902;9.204;2023-01-09T06:03:27;5.50;99.90
7143;DHT22;3613;48.902;9.204;2023-01-09T06:05:53;5.60;99.90
7143;DHT22;3613;48.902;9.204;2023-01-09T06:08:18;5.40;99.90
7143;DHT22;3613;48.902;9.204;2023-01-09T06:10:45;5.40;99.90
7143;DHT22;3613;48.902;9.204;2023-01-09T06:13:11;5.30;99.90
7143;DHT22;3613;48.902;9.204;2023-01-09T06:15:36;5.20;99.90
7143;DHT22;3613;48.902;9.204;2023-01-09T06:18:04;5.20;99.90
7143;DHT22;3613;48.902;9.204;2023-01-09T06:20:30;5.10;99.90
7143;DHT22;3613;48.902;9.204;2023-01-09T06:22:56;5.10;99.90
7143;DHT22;3613;48.902;9.204;2023-01-09T06:25:22;8.10;99.90
7143;DHT22;3613;48.902;9.204;2023-01-09T06:27:48;5.00;99.90
7143;DHT22;3613;48.902;9.204;2023-01-09T06:30:14;5.00;99.90
7143;DHT22;3613;48.902;9.204;2023-01-09T06:32:40;5.00;99.90
7143;DHT22;3613;48.902;9.204;2023-01-09T06:35:05;5.10;99.90
7143;DHT22;3613;48.902;9.204;2023-01-09T06:37:34;4.90;99.90
7143;DHT22;3613;48.902;9.204;2023-01-09T06:40:02;4.80;99.90
7143;DHT22;3613;48.902;9.204;2023-01-09T06:42:28;4.70;99.90
7143;DHT22;3613;48.902;9.204;2023-01-09T06:44:53;4.80;99.90
7143;DHT22;3613;48.902;9.204;2023-01-09T06:47:19;4.70;99.90
7143;DHT22;3613;48.902;9.204;2023-01-09T06:49:44;5.00;99.90
7143;DHT22;3613;48.902;9.204;2023-01-09T06:52:14;4.80;99.90
7143;DHT22;3613;48.902;9.204;2023-01-09T06:54:40;4.70;99.90
7143;DHT22;3613;48.902;9.204;2023-01-09T06:57:08;4.70;99.90
7143;DHT22;3613;48.902;9.204;2023-01-09T06:59:34;4.70;99.90
7143;DHT22;3613;48.902;9.204;2023-01-09T07:01:59;4.70;99.90
7143;DHT22;3613;48.902;9.204;2023-01-09T07:04:27;4.80;99.90
7143;DHT22;3613;48.902;9.204;2023-01-09T07:06:55;5.00;99.90
7143;DHT22;3613;48.902;9.204;2023-01-09T07:09:21;5.10;99.90
7143;DHT22;3613;48.902;9.204;2023-01-09T07:11:49;5.20;99.90
7143;DHT22;3613;48.902;9.204;2023-01-09T07:14:17;5.20;99.90
7143;DHT22;3613;48.902;9.204;2023-01-09T07:16:42;5.30;99.90
7143;DHT22;3613;48.902;9.204;2023-01-09T07:19:12;5.30;99.90
7143;DHT22;3613;48.902;9.204;2023-01-09T07:21:38;5.40;99.90
7143;DHT22;3613;48.902;9.204;2023-01-09T07:24:03;5.40;99.90
7143;DHT22;3613;48.902;9.204;2023-01-09T07:26:29;5.40;99.90
7143;DHT22;3613;48.902;9.204;2023-01-09T07:28:59;5.40;99.90
7143;DHT22;3613;48.902;9.204;2023-01-09T07:31:25;5.40;99.90
7143;DHT22;3613;48.902;9.204;2023-01-09T07:33:53;5.40;99.90
7143;DHT22;3613;48.902;9.204;2023-01-09T07:36:18;5.30;99.90
7143;DHT22;3613;48.902;9.204;2023-01-09T07:38:47;5.40;99.90
7143;DHT22;3613;48.902;9.204;2023-01-09T07:41:15;4.80;99.90
7143;DHT22;3613;48.902;9.204;2023-01-09T07:43:40;5.50;99.90
7143;DHT22;3613;48.902;9.204;2023-01-09T07:46:06;5.50;99.90
7143;DHT22;3613;48.902;9.204;2023-01-09T07:48:34;5.60;99.90
7143;DHT22;3613;48.902;9.204;2023-01-09T07:50:59;5.80;99.90
7143;DHT22;3613;48.902;9.204;2023-01-09T07:53:25;6.00;99.90
7143;DHT22;3613;48.902;9.204;2023-01-09T07:55:50;6.00;99.90
7143;DHT22;3613;48.902;9.204;2023-01-09T07:58:16;6.10;99.90
7143;DHT22;3613;48.902;9.204;2023-01-09T08:00:42;6.30;99.90
7143;DHT22;3613;48.902;9.204;2023-01-09T08:03:07;6.20;99.90
7143;DHT22;3613;48.902;9.204;2023-01-09T08:05:33;6.70;99.90
7143;DHT22;3613;48.902;9.204;2023-01-09T08:07:59;6.20;99.90
7143;DHT22;3613;48.902;9.204;2023-01-09T08:10:26;6.30;99.90
7143;DHT22;3613;48.902;9.204;2023-01-09T08:12:54;6.30;99.90
7143;DHT22;3613;48.902;9.204;2023-01-09T08:15:19;6.40;99.90
7143;DHT22;3613;48.902;9.204;2023-01-09T08:17:45;6.50;99.90
7143;DHT22;3613;48.902;9.204;2023-01-09T08:20:13;6.50;99.90
7143;DHT22;3613;48.902;9.204;2023-01-09T08:22:45;6.60;99.90
7143;DHT22;3613;48.902;9.204;2023-01-09T08:25:14;6.60;99.90
7143;DHT22;3613;48.902;9.204;2023-01-09T08:27:40;6.70;99.90
7143;DHT22;3613;48.902;9.204;2023-01-09T08:30:06;6.80;99.90
7143;DHT22;3613;48.902;9.204;2023-01-09T08:32:34;6.90;99.90
7143;DHT22;3613;48.902;9.204;2023-01-09T08:35:02;7.00;99.90
7143;DHT22;3613;48.902;9.204;2023-01-09T08:37:28;7.10;99.90
7143;DHT22;3613;48.902;9.204;2023-01-09T08:39:54;7.20;99.90
7143;DHT22;3613;48.902;9.204;2023-01-09T08:42:19;7.30;99.90
7143;DHT22;3613;48.902;9.204;2023-01-09T08:45:04;7.40;99.90
7143;DHT22;3613;48.902;9.204;2023-01-09T08:47:48;7.70;99.90
7143;DHT22;3613;48.902;9.204;2023-01-09T08:50:16;8.20;99.90
7143;DHT22;3613;48.902;9.204;2023-01-09T08:52:41;8.50;99.90
7143;DHT22;3613;48.902;9.204;2023-01-09T08:55:07;9.10;99.90
7143;DHT22;3613;48.902;9.204;2023-01-09T08:57:33;9.90;99.90
7143;DHT22;3613;48.902;9.204;2023-01-09T08:59:59;10.50;99.90
7143;DHT22;3613;48.902;9.204;2023-01-09T09:02:24;10.60;99.90
7143;DHT22;3613;48.902;9.204;2023-01-09T09:04:50;10.50;99.90
7143;DHT22;3613;48.902;9.204;2023-01-09T09:07:20;10.30;99.90
7143;DHT22;3613;48.902;9.204;2023-01-09T09:09:52;9.70;99.90
7143;DHT22;3613;48.902;9.204;2023-01-09T09:12:18;9.20;99.90
7143;DHT22;3613;48.902;9.204;2023-01-09T09:14:43;9.20;99.90
7143;DHT22;3613;48.902;9.204;2023-01-09T09:17:27;9.20;99.90
7143;DHT22;3613;48.902;9.204;2023-01-09T09:19:53;9.70;99.90
7143;DHT22;3613;48.902;9.204;2023-01-09T09:22:21;10.00;99.90
7143;DHT22;3613;48.902;9.204;2023-01-09T09:24:49;10.40;99.90
7143;DHT22;3613;48.902;9.204;2023-01-09T09:27:14;9.80;99.90
7143;DHT22;3613;48.902;9.204;2023-01-09T09:29:40;11.10;99.90
7143;DHT22;3613;48.902;9.204;2023-01-09T09:32:05;11.30;99.90
7143;DHT22;3613;48.902;9.204;2023-01-09T09:34:31;11.50;99.90
7143;DHT22;3613;48.902;9.204;2023-01-09T09:36:59;11.60;99.90
7143;DHT22;3613;48.902;9.204;2023-01-09T09:39:24;11.70;99.90
7143;DHT22;3613;48.902;9.204;2023-01-09T09:42:04;11.50;99.90
7143;DHT22;3613;48.902;9.204;2023-01-09T09:50:25;10.50;99.90
7143;DHT22;3613;48.902;9.204;2023-01-09T09:55:40;9.90;99.90
7143;DHT22;3613;48.902;9.204;2023-01-09T10:00:36;9.90;99.90
7143;DHT22;3613;48.902;9.204;2023-01-09T10:03:05;9.70;99.90
7143;DHT22;3613;48.902;9.204;2023-01-09T10:05:35;9.60;99.90
7143;DHT22;3613;48.902;9.204;2023-01-09T10:08:36;9.60;99.90
7143;DHT22;3613;48.902;9.204;2023-01-09T10:11:04;9.30;99.90
7143;DHT22;3613;48.902;9.204;2023-01-09T10:13:33;9.30;99.90
7143;DHT22;3613;48.902;9.204;2023-01-09T10:31:10;9.40;99.90
7143;DHT22;3613;48.902;9.204;2023-01-09T10:38:42;9.40;99.90
7143;DHT22;3613;48.902;9.204;2023-01-09T10:46:27;9.30;99.90
7143;DHT22;3613;48.902;9.204;2023-01-09T10:48:58;9.50;99.90
7143;DHT22;3613;48.902;9.204;2023-01-09T10:51:30;9.50;99.90
7143;DHT22;3613;48.902;9.204;2023-01-09T10:53:57;9.60;99.90
7143;DHT22;3613;48.902;9.204;2023-01-09T10:56:26;9.70;99.90
7143;DHT22;3613;48.902;9.204;2023-01-09T10:58:54;9.80;99.90
7143;DHT22;3613;48.902;9.204;2023-01-09T11:01:28;9.80;99.90
7143;DHT22;3613;48.902;9.204;2023-01-09T11:03:55;9.80;99.90
7143;DHT22;3613;48.902;9.204;2023-01-09T11:06:43;9.70;99.90
7143;DHT22;3613;48.902;9.204;2023-01-09T11:09:09;9.80;99.90
7143;DHT22;3613;48.902;9.204;2023-01-09T11:11:38;10.00;99.90
7143;DHT22;3613;48.902;9.204;2023-01-09T11:14:24;10.10;99.90
7143;DHT22;3613;48.902;9.204;2023-01-09T11:17:00;10.00;99.90
7143;DHT22;3613;48.902;9.204;2023-01-09T11:19:30;10.00;99.90
7143;DHT22;3613;48.902;9.204;2023-01-09T11:22:18;10.00;99.90
7143;DHT22;3613;48.902;9.204;2023-01-09T11:24:46;10.00;99.90
7143;DHT22;3613;48.902;9.204;2023-01-09T11:27:24;9.90;99.90
7143;DHT22;3613;48.902;9.204;2023-01-09T11:32:37;9.60;99.90
7143;DHT22;3613;48.902;9.204;2023-01-09T11:35:06;9.60;99.90
7143;DHT22;3613;48.902;9.204;2023-01-09T11:37:39;9.60;99.90
7143;DHT22;3613;48.902;9.204;2023-01-09T11:40:17;9.50;99.90
7143;DHT22;3613;48.902;9.204;2023-01-09T11:43:19;9.70;99.90
7143;DHT22;3613;48.902;9.204;2023-01-09T11:45:53;10.00;99.90
7143;DHT22;3613;48.902;9.204;2023-01-09T11:51:00;10.30;99.90
7143;DHT22;3613;48.902;9.204;2023-01-09T11:53:27;10.40;99.90
7143;DHT22;3613;48.902;9.204;2023-01-09T11:55:58;10.40;99.90
7143;DHT22;3613;48.902;9.204;2023-01-09T11:58:30;10.60;99.90
7143;DHT22;3613;48.902;9.204;2023-01-09T12:09:08;10.50;99.90
7143;DHT22;3613;48.902;9.204;2023-01-09T12:12:01;10.50;99.90
7143;DHT22;3613;48.902;9.204;2023-01-09T12:14:59;10.40;99.90
7143;DHT22;3613;48.902;9.204;2023-01-09T12:23:22;10.20;99.90
7143;DHT22;3613;48.902;9.204;2023-01-09T12:28:37;10.10;99.90
7143;DHT22;3613;48.902;9.204;2023-01-09T12:40:21;9.60;99.90
7143;DHT22;3613;48.902;9.204;2023-01-09T12:56:49;8.60;99.90
7143;DHT22;3613;48.902;9.204;2023-01-09T13:02:34;9.60;99.90
7143;DHT22;3613;48.902;9.204;2023-01-09T13:05:19;10.10;99.90
7143;DHT22;3613;48.902;9.204;2023-01-09T13:10:31;9.80;99.90
7143;DHT22;3613;48.902;9.204;2023-01-09T13:13:04;11.20;99.90
7143;DHT22;3613;48.902;9.204;2023-01-09T13:15:36;9.30;99.90
7143;DHT22;3613;48.902;9.204;2023-01-09T13:18:15;9.30;99.90
7143;DHT22;3613;48.902;9.204;2023-01-09T13:20:47;9.00;99.90
7143;DHT22;3613;48.902;9.204;2023-01-09T13:26:05;8.70;99.90
7143;DHT22;3613;48.902;9.204;2023-01-09T13:28:42;8.50;99.90
7143;DHT22;3613;48.902;9.204;2023-01-09T13:34:33;8.60;99.90
7143;DHT22;3613;48.902;9.204;2023-01-09T13:37:00;8.60;99.90
7143;DHT22;3613;48.902;9.204;2023-01-09T13:39:30;8.60;99.90
7143;DHT22;3613;48.902;9.204;2023-01-09T13:41:59;8.60;99.90
7143;DHT22;3613;48.902;9.204;2023-01-09T13:44:48;8.60;99.90
7143;DHT22;3613;48.902;9.204;2023-01-09T13:47:25;8.50;99.90
7143;DHT22;3613;48.902;9.204;2023-01-09T13:52:37;8.40;99.90
7143;DHT22;3613;48.902;9.204;2023-01-09T13:57:44;8.10;99.90
7143;DHT22;3613;48.902;9.204;2023-01-09T14:08:05;7.50;99.90
7143;DHT22;3613;48.902;9.204;2023-01-09T14:15:40;7.40;99.90
7143;DHT22;3613;48.902;9.204;2023-01-09T14:18:23;7.30;99.90
7143;DHT22;3613;48.902;9.204;2023-01-09T14:21:05;7.50;99.90
7143;DHT22;3613;48.902;9.204;2023-01-09T14:26:01;7.00;99.90
7143;DHT22;3613;48.902;9.204;2023-01-09T14:28:28;7.00;99.90
7143;DHT22;3613;48.902;9.204;2023-01-09T14:33:30;6.90;99.90
7143;DHT22;3613;48.902;9.204;2023-01-09T14:36:16;6.80;99.90
7143;DHT22;3613;48.902;9.204;2023-01-09T14:39:00;6.80;99.90
7143;DHT22;3613;48.902;9.204;2023-01-09T14:41:44;6.80;99.90
7143;DHT22;3613;48.902;9.204;2023-01-09T14:47:11;6.80;99.90
7143;DHT22;3613;48.902;9.204;2023-01-09T14:54:53;6.50;99.90
7143;DHT22;3613;48.902;9.204;2023-01-09T14:57:25;6.50;99.90
7143;DHT22;3613;48.902;9.204;2023-01-09T15:02:21;6.30;99.90
7143;DHT22;3613;48.902;9.204;2023-01-09T15:04:46;6.30;99.90
7143;DHT22;3613;48.902;9.204;2023-01-09T15:07:22;6.20;99.90
7143;DHT22;3613;48.902;9.204;2023-01-09T15:09:59;6.20;99.90
7143;DHT22;3613;48.902;9.204;2023-01-09T15:12:26;6.10;99.90
7143;DHT22;3613;48.902;9.204;2023-01-09T15:14:55;6.10;99.90
7143;DHT22;3613;48.902;9.204;2023-01-09T15:17:33;6.20;99.90
7143;DHT22;3613;48.902;9.204;2023-01-09T15:20:03;6.30;99.90
7143;DHT22;3613;48.902;9.204;2023-01-09T15:22:31;6.40;99.90
7143;DHT22;3613;48.902;9.204;2023-01-09T15:24:59;6.50;99.90
7143;DHT22;3613;48.902;9.204;2023-01-09T15:27:49;6.50;99.90
7143;DHT22;3613;48.902;9.204;2023-01-09T15:30:20;6.60;99.90
7143;DHT22;3613;48.902;9.204;2023-01-09T15:32:49;6.40;99.90
7143;DHT22;3613;48.902;9.204;2023-01-09T15:35:18;6.20;99.90
7143;DHT22;3613;48.902;9.204;2023-01-09T15:37:45;6.00;99.90
7143;DHT22;3613;48.902;9.204;2023-01-09T15:40:22;5.90;99.90
7143;DHT22;3613;48.902;9.204;2023-01-09T15:42:53;5.80;99.90
7143;DHT22;3613;48.902;9.204;2023-01-09T15:45:41;5.70;99.90
7143;DHT22;3613;48.902;9.204;2023-01-09T15:48:27;5.70;99.90
7143;DHT22;3613;48.902;9.204;2023-01-09T15:51:08;5.60;99.90
7143;DHT22;3613;48.902;9.204;2023-01-09T15:53:41;5.60;99.90
7143;DHT22;3613;48.902;9.204;2023-01-09T15:56:21;6.00;99.90
7143;DHT22;3613;48.902;9.204;2023-01-09T15:58:57;5.40;99.90
7143;DHT22;3613;48.902;9.204;2023-01-09T16:06:31;5.40;99.90
7143;DHT22;3613;48.902;9.204;2023-01-09T16:08:58;5.90;99.90
7143;DHT22;3613;48.902;9.204;2023-01-09T16:11:31;5.30;99.90
7143;DHT22;3613;48.902;9.204;2023-01-09T16:14:03;5.30;99.90
7143;DHT22;3613;48.902;9.204;2023-01-09T16:16:34;6.00;99.90
7143;DHT22;3613;48.902;9.204;2023-01-09T16:19:02;5.20;99.90
7143;DHT22;3613;48.902;9.204;2023-01-09T16:26:31;5.20;99.90
7143;DHT22;3613;48.902;9.204;2023-01-09T16:29:26;5.30;99.90
7143;DHT22;3613;48.902;9.204;2023-01-09T16:32:03;5.20;99.90
7143;DHT22;3613;48.902;9.204;2023-01-09T16:34:31;5.20;99.90
7143;DHT22;3613;48.902;9.204;2023-01-09T16:36:57;5.20;99.90
7143;DHT22;3613;48.902;9.204;2023-01-09T16:39:23;5.30;99.90
7143;DHT22;3613;48.902;9.204;2023-01-09T16:41:50;5.20;99.90
7143;DHT22;3613;48.902;9.204;2023-01-09T16:44:36;5.30;99.90
7143;DHT22;3613;48.902;9.204;2023-01-09T16:47:02;5.30;99.90
7143;DHT22;3613;48.902;9.204;2023-01-09T16:49:28;5.40;99.90
7143;DHT22;3613;48.902;9.204;2023-01-09T16:51:54;5.40;99.90
7143;DHT22;3613;48.902;9.204;2023-01-09T16:54:20;5.40;99.90
7143;DHT22;3613;48.902;9.204;2023-01-09T16:56:50;5.50;99.90
7143;DHT22;3613;48.902;9.204;2023-01-09T16:59:26;5.50;99.90
7143;DHT22;3613;48.902;9.204;2023-01-09T17:01:54;5.60;99.90
7143;DHT22;3613;48.902;9.204;2023-01-09T17:04:23;5.60;99.90
7143;DHT22;3613;48.902;9.204;2023-01-09T17:06:51;5.60;99.90
7143;DHT22;3613;48.902;9.204;2023-01-09T17:09:19;5.70;99.90
7143;DHT22;3613;48.902;9.204;2023-01-09T17:11:50;5.70;99.90
7143;DHT22;3613;48.902;9.204;2023-01-09T17:14:15;5.70;99.90
7143;DHT22;3613;48.902;9.204;2023-01-09T17:16:41;5.90;99.90
7143;DHT22;3613;48.902;9.204;2023-01-09T17:19:15;5.80;99.90
7143;DHT22;3613;48.902;9.204;2023-01-09T17:21:44;5.80;99.90
7143;DHT22;3613;48.902;9.204;2023-01-09T17:24:12;5.90;99.90
7143;DHT22;3613;48.902;9.204;2023-01-09T17:27:00;5.90;99.90
7143;DHT22;3613;48.902;9.204;2023-01-09T17:29:44;6.00;99.90
7143;DHT22;3613;48.902;9.204;2023-01-09T17:32:14;6.10;99.90
7143;DHT22;3613;48.902;9.204;2023-01-09T17:34:43;6.00;99.90
7143;DHT22;3613;48.902;9.204;2023-01-09T17:37:18;6.00;99.90
7143;DHT22;3613;48.902;9.204;2023-01-09T17:39:44;6.00;99.90
7143;DHT22;3613;48.902;9.204;2023-01-09T17:42:12;6.00;99.90
7143;DHT22;3613;48.902;9.204;2023-01-09T17:44:40;6.00;99.90
7143;DHT22;3613;48.902;9.204;2023-01-09T17:47:05;6.10;99.90
7143;DHT22;3613;48.902;9.204;2023-01-09T17:49:39;6.10;99.90
7143;DHT22;3613;48.902;9.204;2023-01-09T17:52:06;6.10;99.90
7143;DHT22;3613;48.902;9.204;2023-01-09T17:54:32;6.10;99.90
7143;DHT22;3613;48.902;9.204;2023-01-09T17:56:58;6.30;99.90
7143;DHT22;3613;48.902;9.204;2023-01-09T17:59:24;6.20;99.90
7143;DHT22;3613;48.902;9.204;2023-01-09T18:01:53;6.30;99.90
7143;DHT22;3613;48.902;9.204;2023-01-09T18:04:18;6.20;99.90
7143;DHT22;3613;48.902;9.204;2023-01-09T18:06:46;6.20;99.90
7143;DHT22;3613;48.902;9.204;2023-01-09T18:09:16;6.40;99.90
7143;DHT22;3613;48.902;9.204;2023-01-09T18:11:43;6.20;99.90
7143;DHT22;3613;48.902;9.204;2023-01-09T18:14:09;6.20;99.90
7143;DHT22;3613;48.902;9.204;2023-01-09T18:16:37;6.20;99.90
7143;DHT22;3613;48.902;9.204;2023-01-09T18:19:03;6.20;99.90
7143;DHT22;3613;48.902;9.204;2023-01-09T18:21:29;6.10;99.90
7143;DHT22;3613;48.902;9.204;2023-01-09T18:24:00;6.00;99.90
7143;DHT22;3613;48.902;9.204;2023-01-09T18:26:26;6.00;99.90
7143;DHT22;3613;48.902;9.204;2023-01-09T18:28:55;5.90;99.90
7143;DHT22;3613;48.902;9.204;2023-01-09T18:31:25;5.90;99.90
7143;DHT22;3613;48.902;9.204;2023-01-09T18:33:53;5.80;99.90
7143;DHT22;3613;48.902;9.204;2023-01-09T18:36:23;5.80;99.90
7143;DHT22;3613;48.902;9.204;2023-01-09T18:38:54;5.70;99.90
7143;DHT22;3613;48.902;9.204;2023-01-09T18:41:20;5.70;99.90
7143;DHT22;3613;48.902;9.204;2023-01-09T18:43:54;5.70;99.90
7143;DHT22;3613;48.902;9.204;2023-01-09T18:46:20;5.70;99.90
7143;DHT22;3613;48.902;9.204;2023-01-09T18:48:56;5.70;99.90
7143;DHT22;3613;48.902;9.204;2023-01-09T18:51:23;5.70;99.90
7143;DHT22;3613;48.902;9.204;2023-01-09T18:53:49;5.70;99.90
7143;DHT22;3613;48.902;9.204;2023-01-09T18:56:16;5.70;99.90
7143;DHT22;3613;48.902;9.204;2023-01-09T18:58:45;5.60;99.90
7143;DHT22;3613;48.902;9.204;2023-01-09T19:01:10;5.60;99.90
7143;DHT22;3613;48.902;9.204;2023-01-09T19:03:37;5.60;99.90
7143;DHT22;3613;48.902;9.204;2023-01-09T19:06:03;5.60;99.90
7143;DHT22;3613;48.902;9.204;2023-01-09T19:08:30;5.50;99.90
7143;DHT22;3613;48.902;9.204;2023-01-09T19:10:57;5.40;99.90
7143;DHT22;3613;48.902;9.204;2023-01-09T19:13:30;5.40;99.90
7143;DHT22;3613;48.902;9.204;2023-01-09T19:15:57;5.30;99.90
7143;DHT22;3613;48.902;9.204;2023-01-09T19:18:25;5.30;99.90